Ropesville, Texas
Current Conditions -  °F | °C
As of 11:53 PM on Sunday 19 Oct 2014 (Local Time) from KLBB Reporting Station
Broken Clouds Broken Clouds  
Wind Chill: 61°   Ceiling: 11000
Heat Index: 61°   Visibility: 10mi
Dew Point: 57°   Wind: 9mph
Humidity: 87%   Direction: 150°SSE
Pressure: 30.08"   Gusts: NA
Location:  33.41°N, 102.15°W
Report Text: KLBB 200453Z 15008KT 10SM SCT070 BKN110 16/14 A3008 RMK AO2 SLP154 T01610139
Loading
Personal Weather Stations






























Interactive Weather Map
Tropical Storm Tracking
New forecast layout! Learn more

10-Day Weather Forecast

Advertisements
Track Severe Weather on mobile